sensor_id;sensor_type;location;lat;lon;timestamp;pressure;altitude;pressure_sealevel;temperature;humidity
20628;BME280;10473;42.734;24.258;2023-05-24T00:01:32;91718.34;;;13.25;65.63
20628;BME280;10473;42.734;24.258;2023-05-24T00:04:00;91717.22;;;13.12;66.37
20628;BME280;10473;42.734;24.258;2023-05-24T00:06:28;91716.47;;;13.11;66.56
20628;BME280;10473;42.734;24.258;2023-05-24T00:08:55;91720.66;;;13.12;66.58
20628;BME280;10473;42.734;24.258;2023-05-24T00:11:24;91713.06;;;13.07;66.11
20628;BME280;10473;42.734;24.258;2023-05-24T00:13:54;91717.25;;;13.15;66.70
20628;BME280;10473;42.734;24.258;2023-05-24T00:16:22;91717.25;;;13.15;67.04
20628;BME280;10473;42.734;24.258;2023-05-24T00:18:49;91722.94;;;13.14;66.72
20628;BME280;10473;42.734;24.258;2023-05-24T00:21:17;91723.69;;;13.18;66.60
20628;BME280;10473;42.734;24.258;2023-05-24T00:23:45;91723.69;;;13.11;66.87
20628;BME280;10473;42.734;24.258;2023-05-24T00:26:12;91727.50;;;12.96;67.73
20628;BME280;10473;42.734;24.258;2023-05-24T00:28:49;91718.41;;;12.76;68.08
20628;BME280;10473;42.734;24.258;2023-05-24T00:31:19;91723.75;;;12.83;68.07
20628;BME280;10473;42.734;24.258;2023-05-24T00:33:46;91713.09;;;12.83;68.36
20628;BME280;10473;42.734;24.258;2023-05-24T00:36:14;91718.81;;;12.81;68.43
20628;BME280;10473;42.734;24.258;2023-05-24T00:38:41;91719.16;;;12.87;68.82
20628;BME280;10473;42.734;24.258;2023-05-24T00:41:09;91714.63;;;12.98;68.52
20628;BME280;10473;42.734;24.258;2023-05-24T00:43:37;91715.34;;;13.02;68.50
20628;BME280;10473;42.734;24.258;2023-05-24T00:46:14;91717.28;;;12.63;69.79
20628;BME280;10473;42.734;24.258;2023-05-24T00:48:44;91724.53;;;12.45;70.80
20628;BME280;10473;42.734;24.258;2023-05-24T00:51:13;91712.38;;;12.51;69.72
20628;BME280;10473;42.734;24.258;2023-05-24T00:53:44;91714.63;;;12.63;69.50
20628;BME280;10473;42.734;24.258;2023-05-24T00:56:12;91719.59;;;12.57;69.88
20628;BME280;10473;42.734;24.258;2023-05-24T00:58:40;91709.69;;;12.72;69.57
20628;BME280;10473;42.734;24.258;2023-05-24T01:01:08;91715.41;;;12.60;69.80
20628;BME280;10473;42.734;24.258;2023-05-24T01:03:35;91714.25;;;12.68;70.32
20628;BME280;10473;42.734;24.258;2023-05-24T01:06:07;91718.41;;;12.65;69.94
20628;BME280;10473;42.734;24.258;2023-05-24T01:08:47;91720.69;;;12.70;70.02
20628;BME280;10473;42.734;24.258;2023-05-24T01:11:25;91715.41;;;12.74;69.59
20628;BME280;10473;42.734;24.258;2023-05-24T01:14:03;91716.91;;;12.75;69.71
20628;BME280;10473;42.734;24.258;2023-05-24T01:16:45;91716.91;;;12.61;69.26
20628;BME280;10473;42.734;24.258;2023-05-24T01:19:37;91706.66;;;12.56;69.76
20628;BME280;10473;42.734;24.258;2023-05-24T01:25:18;91700.22;;;12.57;70.34
20628;BME280;10473;42.734;24.258;2023-05-24T01:27:51;91705.16;;;12.55;70.33
20628;BME280;10473;42.734;24.258;2023-05-24T01:30:19;91693.00;;;12.61;70.50
20628;BME280;10473;42.734;24.258;2023-05-24T01:32:48;91705.53;;;12.64;71.06
20628;BME280;10473;42.734;24.258;2023-05-24T01:35:16;91699.44;;;12.74;69.98
20628;BME280;10473;42.734;24.258;2023-05-24T01:37:43;91704.00;;;12.63;70.35
20628;BME280;10473;42.734;24.258;2023-05-24T01:40:12;91702.50;;;12.55;70.98
20628;BME280;10473;42.734;24.258;2023-05-24T01:42:44;91704.75;;;12.63;70.20
20628;BME280;10473;42.734;24.258;2023-05-24T01:45:18;91714.28;;;12.57;70.71
20628;BME280;10473;42.734;24.258;2023-05-24T01:47:57;91700.22;;;12.57;69.96
20628;BME280;10473;42.734;24.258;2023-05-24T01:50:31;91704.75;;;12.53;70.61
20628;BME280;10473;42.734;24.258;2023-05-24T01:53:03;91700.97;;;12.61;70.13
20628;BME280;10473;42.734;24.258;2023-05-24T01:55:33;91704.38;;;12.72;70.54
20628;BME280;10473;42.734;24.258;2023-05-24T01:58:02;91693.38;;;12.59;70.61
20628;BME280;10473;42.734;24.258;2023-05-24T02:00:32;91697.94;;;12.52;70.88
20628;BME280;10473;42.734;24.258;2023-05-24T02:03:01;91697.94;;;12.52;70.41
20628;BME280;10473;42.734;24.258;2023-05-24T02:05:31;91691.88;;;12.48;70.46
20628;BME280;10473;42.734;24.258;2023-05-24T02:07:59;91683.53;;;12.46;70.81
20628;BME280;10473;42.734;24.258;2023-05-24T02:10:26;91687.31;;;12.38;70.13
20628;BME280;10473;42.734;24.258;2023-05-24T02:12:54;91688.47;;;12.37;70.94
20628;BME280;10473;42.734;24.258;2023-05-24T02:15:22;91686.53;;;12.48;70.55
20628;BME280;10473;42.734;24.258;2023-05-24T02:17:52;91695.66;;;12.33;70.39
20628;BME280;10473;42.734;24.258;2023-05-24T02:20:20;91690.72;;;12.42;69.83
20628;BME280;10473;42.734;24.258;2023-05-24T02:22:49;91682.03;;;12.31;69.89
20628;BME280;10473;42.734;24.258;2023-05-24T02:25:17;91700.22;;;12.25;70.57
20628;BME280;10473;42.734;24.258;2023-05-24T02:27:45;91696.81;;;12.32;70.81
20628;BME280;10473;42.734;24.258;2023-05-24T02:30:13;91701.75;;;12.37;69.95
20628;BME280;10473;42.734;24.258;2023-05-24T02:32:40;91689.59;;;12.18;70.06
20628;BME280;10473;42.734;24.258;2023-05-24T02:35:09;91699.84;;;12.13;70.63
20628;BME280;10473;42.734;24.258;2023-05-24T02:37:37;91699.47;;;12.11;70.76
20628;BME280;10473;42.734;24.258;2023-05-24T02:40:07;91685.78;;;12.09;71.12
20628;BME280;10473;42.734;24.258;2023-05-24T02:42:34;91688.44;;;12.09;70.37
20628;BME280;10473;42.734;24.258;2023-05-24T02:45:03;91690.38;;;12.05;70.71
20628;BME280;10473;42.734;24.258;2023-05-24T02:47:30;91700.22;;;12.01;70.85
20628;BME280;10473;42.734;24.258;2023-05-24T02:49:58;91703.63;;;12.15;70.51
20628;BME280;10473;42.734;24.258;2023-05-24T02:52:27;91695.28;;;12.17;70.61
20628;BME280;10473;42.734;24.258;2023-05-24T02:54:55;91706.31;;;12.05;71.52
20628;BME280;10473;42.734;24.258;2023-05-24T02:57:22;91697.19;;;12.09;71.59
20628;BME280;10473;42.734;24.258;2023-05-24T02:59:50;91692.25;;;12.08;71.73
20628;BME280;10473;42.734;24.258;2023-05-24T03:02:18;91705.13;;;11.92;72.69
20628;BME280;10473;42.734;24.258;2023-05-24T03:04:47;91706.28;;;11.98;72.76
20628;BME280;10473;42.734;24.258;2023-05-24T03:07:15;91711.59;;;11.91;73.15
20628;BME280;10473;42.734;24.258;2023-05-24T03:09:44;91705.50;;;11.90;72.93
20628;BME280;10473;42.734;24.258;2023-05-24T03:12:12;91695.28;;;11.96;72.57
20628;BME280;10473;42.734;24.258;2023-05-24T03:14:40;91700.94;;;11.84;73.63
20628;BME280;10473;42.734;24.258;2023-05-24T03:17:07;91696.03;;;11.96;72.66
20628;BME280;10473;42.734;24.258;2023-05-24T03:19:35;91695.28;;;11.96;72.53
20628;BME280;10473;42.734;24.258;2023-05-24T03:22:03;91691.09;;;11.77;74.24
20628;BME280;10473;42.734;24.258;2023-05-24T03:24:31;91702.81;;;11.69;75.58
20628;BME280;10473;42.734;24.258;2023-05-24T03:27:01;91697.53;;;11.80;74.97
20628;BME280;10473;42.734;24.258;2023-05-24T03:29:29;91692.63;;;11.96;74.00
20628;BME280;10473;42.734;24.258;2023-05-24T03:31:56;91697.97;;;12.10;73.51
20628;BME280;10473;42.734;24.258;2023-05-24T03:34:24;91701.38;;;12.03;73.53
20628;BME280;10473;42.734;24.258;2023-05-24T03:36:52;91697.59;;;12.15;73.60
20628;BME280;10473;42.734;24.258;2023-05-24T03:39:20;91694.91;;;12.18;73.60
20628;BME280;10473;42.734;24.258;2023-05-24T03:42:09;91698.34;;;12.26;72.88
20628;BME280;10473;42.734;24.258;2023-05-24T03:44:37;91703.28;;;12.31;73.13
20628;BME280;10473;42.734;24.258;2023-05-24T03:47:06;91704.41;;;12.37;72.75
20628;BME280;10473;42.734;24.258;2023-05-24T03:49:33;91709.72;;;12.23;73.35
20628;BME280;10473;42.734;24.258;2023-05-24T03:52:01;91703.66;;;12.29;73.21
20628;BME280;10473;42.734;24.258;2023-05-24T03:54:29;91709.34;;;12.35;72.86
20628;BME280;10473;42.734;24.258;2023-05-24T03:56:57;91705.94;;;12.41;73.19
20628;BME280;10473;42.734;24.258;2023-05-24T03:59:26;91692.63;;;12.45;73.41
20628;BME280;10473;42.734;24.258;2023-05-24T04:01:54;91717.69;;;12.65;72.99
20628;BME280;10473;42.734;24.258;2023-05-24T04:04:22;91707.78;;;12.83;73.59
20628;BME280;10473;42.734;24.258;2023-05-24T04:06:51;91714.63;;;12.98;72.92
20628;BME280;10473;42.734;24.258;2023-05-24T04:09:21;91711.50;;;13.24;72.06
20628;BME280;10473;42.734;24.258;2023-05-24T04:11:48;91715.31;;;13.23;72.13
20628;BME280;10473;42.734;24.258;2023-05-24T04:14:16;91716.31;;;13.57;72.19
20628;BME280;10473;42.734;24.258;2023-05-24T04:16:45;91709.69;;;13.86;71.29
20628;BME280;10473;42.734;24.258;2023-05-24T04:19:13;91719.91;;;13.98;70.91
20628;BME280;10473;42.734;24.258;2023-05-24T04:21:41;91723.84;;;14.37;70.51
20628;BME280;10473;42.734;24.258;2023-05-24T04:24:09;91727.09;;;14.59;68.85
20628;BME280;10473;42.734;24.258;2023-05-24T04:26:36;91726.53;;;14.85;67.73
20628;BME280;10473;42.734;24.258;2023-05-24T04:29:04;91717.16;;;15.07;67.75
20628;BME280;10473;42.734;24.258;2023-05-24T04:31:32;91725.97;;;15.41;67.04
20628;BME280;10473;42.734;24.258;2023-05-24T04:34:02;91719.66;;;15.61;66.44
20628;BME280;10473;42.734;24.258;2023-05-24T04:36:30;91732.47;;;15.73;66.29
20628;BME280;10473;42.734;24.258;2023-05-24T04:38:59;91741.47;;;15.86;65.20
20628;BME280;10473;42.734;24.258;2023-05-24T04:41:28;91730.38;;;16.18;64.71
20628;BME280;10473;42.734;24.258;2023-05-24T04:43:57;91736.50;;;16.45;63.63
20628;BME280;10473;42.734;24.258;2023-05-24T04:46:26;91736.59;;;16.64;63.83
20628;BME280;10473;42.734;24.258;2023-05-24T04:48:54;91730.38;;;16.94;63.05
20628;BME280;10473;42.734;24.258;2023-05-24T04:51:23;91731.97;;;17.11;62.91
20628;BME280;10473;42.734;24.258;2023-05-24T04:53:50;91739.59;;;17.35;62.77
20628;BME280;10473;42.734;24.258;2023-05-24T04:56:18;91743.53;;;17.50;62.27
20628;BME280;10473;42.734;24.258;2023-05-24T04:58:46;91739.28;;;17.72;61.32
20628;BME280;10473;42.734;24.258;2023-05-24T05:01:14;91738.72;;;18.00;60.21
20628;BME280;10473;42.734;24.258;2023-05-24T05:03:42;91742.22;;;18.17;60.41
20628;BME280;10473;42.734;24.258;2023-05-24T05:06:11;91752.50;;;18.38;60.17
20628;BME280;10473;42.734;24.258;2023-05-24T05:08:40;91747.94;;;18.54;59.71
20628;BME280;10473;42.734;24.258;2023-05-24T05:11:08;91758.28;;;18.88;58.94
20628;BME280;10473;42.734;24.258;2023-05-24T05:13:36;91760.53;;;19.05;58.88
20628;BME280;10473;42.734;24.258;2023-05-24T05:16:04;91759.28;;;19.10;58.53
20628;BME280;10473;42.734;24.258;2023-05-24T05:18:32;91747.78;;;19.41;58.34
20628;BME280;10473;42.734;24.258;2023-05-24T05:20:59;91764.66;;;19.42;57.62
20628;BME280;10473;42.734;24.258;2023-05-24T05:23:28;91771.22;;;19.25;58.09
20628;BME280;10473;42.734;24.258;2023-05-24T05:25:57;91764.97;;;19.60;57.58
20628;BME280;10473;42.734;24.258;2023-05-24T05:28:25;91766.41;;;19.77;57.85
20628;BME280;10473;42.734;24.258;2023-05-24T05:30:52;91765.31;;;19.46;57.79
20628;BME280;10473;42.734;24.258;2023-05-24T05:33:21;91769.31;;;19.70;57.80
20628;BME280;10473;42.734;24.258;2023-05-24T05:35:49;91769.19;;;19.89;57.96
20628;BME280;10473;42.734;24.258;2023-05-24T05:38:17;91769.69;;;19.84;57.56
20628;BME280;10473;42.734;24.258;2023-05-24T05:40:44;91770.81;;;19.71;57.07
20628;BME280;10473;42.734;24.258;2023-05-24T05:43:14;91772.59;;;19.90;56.62
20628;BME280;10473;42.734;24.258;2023-05-24T05:45:42;91777.44;;;20.11;56.18
20628;BME280;10473;42.734;24.258;2023-05-24T05:48:11;91778.97;;;20.12;55.37
20628;BME280;10473;42.734;24.258;2023-05-24T05:50:38;91790.03;;;20.14;54.73
20628;BME280;10473;42.734;24.258;2023-05-24T05:53:06;91778.09;;;20.15;54.47
20628;BME280;10473;42.734;24.258;2023-05-24T05:55:34;91778.16;;;20.40;54.64
20628;BME280;10473;42.734;24.258;2023-05-24T05:58:02;91775.81;;;20.67;54.00
20628;BME280;10473;42.734;24.258;2023-05-24T06:00:31;91782.06;;;20.64;54.59
20628;BME280;10473;42.734;24.258;2023-05-24T06:02:59;91774.97;;;20.95;54.40
20628;BME280;10473;42.734;24.258;2023-05-24T06:05:26;91783.81;;;20.95;53.90
20628;BME280;10473;42.734;24.258;2023-05-24T06:07:54;91780.38;;;21.20;53.08
20628;BME280;10473;42.734;24.258;2023-05-24T06:10:21;91783.56;;;21.40;52.58
20628;BME280;10473;42.734;24.258;2023-05-24T06:12:49;91784.44;;;21.37;51.02
20628;BME280;10473;42.734;24.258;2023-05-24T06:15:17;91794.19;;;21.56;51.23
20628;BME280;10473;42.734;24.258;2023-05-24T06:17:49;91786.94;;;21.78;50.02
20628;BME280;10473;42.734;24.258;2023-05-24T06:20:17;91783.28;;;21.72;50.66
20628;BME280;10473;42.734;24.258;2023-05-24T06:22:46;91782.44;;;21.62;51.11
20628;BME280;10473;42.734;24.258;2023-05-24T06:25:15;91792.31;;;21.78;50.39
20628;BME280;10473;42.734;24.258;2023-05-24T06:27:49;91788.97;;;22.08;49.33
20628;BME280;10473;42.734;24.258;2023-05-24T06:30:17;91795.63;;;22.16;48.69
20628;BME280;10473;42.734;24.258;2023-05-24T06:32:45;91793.19;;;22.30;48.45
20628;BME280;10473;42.734;24.258;2023-05-24T06:35:14;91793.63;;;22.29;48.60
20628;BME280;10473;42.734;24.258;2023-05-24T06:37:42;91791.09;;;22.13;49.92
20628;BME280;10473;42.734;24.258;2023-05-24T06:40:11;91795.50;;;22.19;49.36
20628;BME280;10473;42.734;24.258;2023-05-24T06:42:38;91789.13;;;22.47;48.02
20628;BME280;10473;42.734;24.258;2023-05-24T06:45:07;91800.53;;;22.73;47.75
20628;BME280;10473;42.734;24.258;2023-05-24T06:47:35;91795.72;;;22.77;47.71
20628;BME280;10473;42.734;24.258;2023-05-24T06:50:03;91807.59;;;22.79;50.20
20628;BME280;10473;42.734;24.258;2023-05-24T06:52:32;91799.78;;;23.03;48.53
20628;BME280;10473;42.734;24.258;2023-05-24T06:55:00;91800.50;;;23.34;49.09
20628;BME280;10473;42.734;24.258;2023-05-24T06:57:28;91782.84;;;23.60;48.84
20628;BME280;10473;42.734;24.258;2023-05-24T06:59:55;91792.22;;;23.86;49.00
20628;BME280;10473;42.734;24.258;2023-05-24T07:02:23;91800.06;;;24.11;48.60
20628;BME280;10473;42.734;24.258;2023-05-24T07:04:55;91791.19;;;24.28;47.33
20628;BME280;10473;42.734;24.258;2023-05-24T07:07:23;91796.44;;;24.50;46.76
20628;BME280;10473;42.734;24.258;2023-05-24T07:09:53;91794.03;;;24.43;47.49
20628;BME280;10473;42.734;24.258;2023-05-24T07:12:21;91789.06;;;24.59;46.17
20628;BME280;10473;42.734;24.258;2023-05-24T07:14:49;91794.19;;;24.48;46.75
20628;BME280;10473;42.734;24.258;2023-05-24T07:17:17;91800.50;;;24.73;43.95
20628;BME280;10473;42.734;24.258;2023-05-24T07:19:45;91800.50;;;24.73;44.73
20628;BME280;10473;42.734;24.258;2023-05-24T07:22:14;91787.63;;;25.00;44.75
20628;BME280;10473;42.734;24.258;2023-05-24T07:24:42;91806.84;;;25.11;43.36
20628;BME280;10473;42.734;24.258;2023-05-24T07:27:11;91793.25;;;25.20;41.75
20628;BME280;10473;42.734;24.258;2023-05-24T07:29:42;91794.41;;;25.37;40.49
20628;BME280;10473;42.734;24.258;2023-05-24T07:32:09;91793.25;;;25.20;42.18
20628;BME280;10473;42.734;24.258;2023-05-24T07:34:37;91800.47;;;25.32;40.88
20628;BME280;10473;42.734;24.258;2023-05-24T07:37:05;91805.00;;;25.26;40.84
20628;BME280;10473;42.734;24.258;2023-05-24T07:39:33;91795.34;;;25.25;40.32
20628;BME280;10473;42.734;24.258;2023-05-24T07:42:00;91798.38;;;25.27;40.24
20628;BME280;10473;42.734;24.258;2023-05-24T07:44:29;91796.88;;;25.17;40.87
20628;BME280;10473;42.734;24.258;2023-05-24T07:46:57;91797.56;;;25.36;41.49
20628;BME280;10473;42.734;24.258;2023-05-24T07:49:26;91800.53;;;25.14;41.49
20628;BME280;10473;42.734;24.258;2023-05-24T07:51:54;91798.38;;;24.49;40.24
20628;BME280;10473;42.734;24.258;2023-05-24T07:54:24;91793.88;;;23.92;42.64
20628;BME280;10473;42.734;24.258;2023-05-24T07:56:52;91800.69;;;23.48;43.71
20628;BME280;10473;42.734;24.258;2023-05-24T07:59:20;91797.84;;;23.43;44.71
20628;BME280;10473;42.734;24.258;2023-05-24T08:01:49;91791.97;;;23.35;45.00
20628;BME280;10473;42.734;24.258;2023-05-24T08:04:28;91793.63;;;23.51;44.38
20628;BME280;10473;42.734;24.258;2023-05-24T08:06:56;91789.69;;;23.34;44.43
20628;BME280;10473;42.734;24.258;2023-05-24T08:09:24;91790.31;;;23.38;44.84
20628;BME280;10473;42.734;24.258;2023-05-24T08:11:53;91792.47;;;23.52;44.46
20628;BME280;10473;42.734;24.258;2023-05-24T08:14:20;91791.28;;;23.62;44.50
20628;BME280;10473;42.734;24.258;2023-05-24T08:16:50;91783.75;;;23.75;44.19
20628;BME280;10473;42.734;24.258;2023-05-24T08:19:17;91797.34;;;23.93;43.86
20628;BME280;10473;42.734;24.258;2023-05-24T08:21:45;91783.22;;;24.16;43.29
20628;BME280;10473;42.734;24.258;2023-05-24T08:24:13;91792.09;;;24.25;42.66
20628;BME280;10473;42.734;24.258;2023-05-24T08:26:41;91787.44;;;24.35;42.35
20628;BME280;10473;42.734;24.258;2023-05-24T08:29:10;91793.41;;;24.48;41.26
20628;BME280;10473;42.734;24.258;2023-05-24T08:31:38;91793.72;;;24.59;40.82
20628;BME280;10473;42.734;24.258;2023-05-24T08:34:07;91790.69;;;24.57;42.72
20628;BME280;10473;42.734;24.258;2023-05-24T08:36:34;91797.63;;;24.76;41.35
20628;BME280;10473;42.734;24.258;2023-05-24T08:39:03;91795.50;;;24.80;39.40
20628;BME280;10473;42.734;24.258;2023-05-24T08:41:32;91798.41;;;24.58;40.48
20628;BME280;10473;42.734;24.258;2023-05-24T08:44:04;91809.97;;;24.77;39.63
20628;BME280;10473;42.734;24.258;2023-05-24T08:46:33;91803.75;;;24.85;40.44
20628;BME280;10473;42.734;24.258;2023-05-24T08:49:01;91804.09;;;24.78;40.31
20628;BME280;10473;42.734;24.258;2023-05-24T08:51:31;91815.66;;;24.88;38.90
20628;BME280;10473;42.734;24.258;2023-05-24T08:53:59;91813.28;;;24.81;39.57
20628;BME280;10473;42.734;24.258;2023-05-24T08:56:27;91808.75;;;24.69;39.06
20628;BME280;10473;42.734;24.258;2023-05-24T08:58:55;91814.81;;;24.37;38.79
20628;BME280;10473;42.734;24.258;2023-05-24T09:01:23;91814.78;;;24.55;39.31
20628;BME280;10473;42.734;24.258;2023-05-24T09:03:52;91815.09;;;24.48;39.62
20628;BME280;10473;42.734;24.258;2023-05-24T09:06:20;91815.13;;;24.21;39.57
20628;BME280;10473;42.734;24.258;2023-05-24T09:08:51;91819.63;;;24.24;40.85
20628;BME280;10473;42.734;24.258;2023-05-24T09:11:20;91815.69;;;24.25;40.00
20628;BME280;10473;42.734;24.258;2023-05-24T09:13:50;91822.31;;;24.24;39.97
20628;BME280;10473;42.734;24.258;2023-05-24T09:16:20;91817.50;;;24.28;40.26
20628;BME280;10473;42.734;24.258;2023-05-24T09:18:48;91820.81;;;24.23;40.06
20628;BME280;10473;42.734;24.258;2023-05-24T09:21:15;91822.88;;;23.83;42.10
20628;BME280;10473;42.734;24.258;2023-05-24T09:23:44;91823.28;;;23.63;41.17
20628;BME280;10473;42.734;24.258;2023-05-24T09:26:13;91829.50;;;23.33;41.12
20628;BME280;10473;42.734;24.258;2023-05-24T09:28:41;91834.28;;;23.20;41.60
20628;BME280;10473;42.734;24.258;2023-05-24T09:31:09;91831.13;;;23.22;41.41
20628;BME280;10473;42.734;24.258;2023-05-24T09:33:37;91834.53;;;22.92;42.20
20628;BME280;10473;42.734;24.258;2023-05-24T09:36:06;91825.50;;;22.86;43.70
20628;BME280;10473;42.734;24.258;2023-05-24T09:38:34;91827.28;;;22.80;44.66
20628;BME280;10473;42.734;24.258;2023-05-24T09:41:03;91830.91;;;22.86;45.29
20628;BME280;10473;42.734;24.258;2023-05-24T09:43:34;91830.66;;;22.93;45.02
20628;BME280;10473;42.734;24.258;2023-05-24T09:46:02;91831.25;;;22.97;45.51
20628;BME280;10473;42.734;24.258;2023-05-24T09:48:30;91830.09;;;22.98;43.84
20628;BME280;10473;42.734;24.258;2023-05-24T09:51:01;91830.84;;;22.77;44.10
20628;BME280;10473;42.734;24.258;2023-05-24T09:53:31;91838.22;;;22.76;45.16
20628;BME280;10473;42.734;24.258;2023-05-24T09:55:59;91842.34;;;22.90;45.17
20628;BME280;10473;42.734;24.258;2023-05-24T09:58:29;91840.22;;;22.85;43.97
20628;BME280;10473;42.734;24.258;2023-05-24T10:01:07;91842.25;;;22.72;44.17
20628;BME280;10473;42.734;24.258;2023-05-24T10:03:36;91848.53;;;22.90;44.57
20628;BME280;10473;42.734;24.258;2023-05-24T10:06:04;91847.38;;;23.00;44.10
20628;BME280;10473;42.734;24.258;2023-05-24T10:08:34;91842.44;;;23.08;43.84
20628;BME280;10473;42.734;24.258;2023-05-24T10:11:02;91841.31;;;23.18;44.87
20628;BME280;10473;42.734;24.258;2023-05-24T10:13:31;91843.13;;;23.21;45.80
20628;BME280;10473;42.734;24.258;2023-05-24T10:16:01;91836.31;;;23.16;45.97
20628;BME280;10473;42.734;24.258;2023-05-24T10:18:30;91824.44;;;23.14;46.42
20628;BME280;10473;42.734;24.258;2023-05-24T10:20:58;91829.16;;;23.22;47.89
20628;BME280;10473;42.734;24.258;2023-05-24T10:23:29;91831.03;;;23.43;48.10
20628;BME280;10473;42.734;24.258;2023-05-24T10:26:02;91833.03;;;23.61;45.38
20628;BME280;10473;42.734;24.258;2023-05-24T10:28:34;91826.63;;;23.76;44.21
20628;BME280;10473;42.734;24.258;2023-05-24T10:31:06;91828.19;;;23.95;44.92
20628;BME280;10473;42.734;24.258;2023-05-24T10:33:39;91828.94;;;23.96;42.15
20628;BME280;10473;42.734;24.258;2023-05-24T10:36:12;91821.78;;;23.62;42.96
20628;BME280;10473;42.734;24.258;2023-05-24T10:38:41;91822.91;;;23.92;42.27
20628;BME280;10473;42.734;24.258;2023-05-24T10:41:10;91824.09;;;23.82;41.12
20628;BME280;10473;42.734;24.258;2023-05-24T10:43:38;91823.16;;;23.85;45.55
20628;BME280;10473;42.734;24.258;2023-05-24T10:46:08;91815.41;;;24.05;45.21
20628;BME280;10473;42.734;24.258;2023-05-24T10:48:38;91816.59;;;24.04;43.88
20628;BME280;10473;42.734;24.258;2023-05-24T10:51:37;91823.22;;;24.03;42.97
20628;BME280;10473;42.734;24.258;2023-05-24T10:54:16;91814.34;;;24.11;43.77
20628;BME280;10473;42.734;24.258;2023-05-24T10:56:45;91810.31;;;24.16;41.32
20628;BME280;10473;42.734;24.258;2023-05-24T10:59:27;91814.34;;;24.11;42.29
20628;BME280;10473;42.734;24.258;2023-05-24T11:01:55;91813.75;;;24.25;41.32
20628;BME280;10473;42.734;24.258;2023-05-24T11:04:26;91822.03;;;24.31;39.86
20628;BME280;10473;42.734;24.258;2023-05-24T11:07:00;91821.41;;;24.09;42.57
20628;BME280;10473;42.734;24.258;2023-05-24T11:09:29;91829.22;;;23.89;45.37
20628;BME280;10473;42.734;24.258;2023-05-24T11:12:00;91829.47;;;23.73;43.77
20628;BME280;10473;42.734;24.258;2023-05-24T11:14:30;91829.69;;;23.39;45.51
20628;BME280;10473;42.734;24.258;2023-05-24T11:16:58;91821.53;;;23.30;45.24
20628;BME280;10473;42.734;24.258;2023-05-24T11:19:32;91826.22;;;23.08;45.16
20628;BME280;10473;42.734;24.258;2023-05-24T11:22:02;91828.88;;;22.99;45.66
20628;BME280;10473;42.734;24.258;2023-05-24T11:24:31;91830.66;;;22.93;44.39
20628;BME280;10473;42.734;24.258;2023-05-24T11:26:59;91818.31;;;22.92;44.48
20628;BME280;10473;42.734;24.258;2023-05-24T11:29:29;91814.88;;;22.91;43.73
20628;BME280;10473;42.734;24.258;2023-05-24T11:31:58;91804.78;;;22.83;44.34
20628;BME280;10473;42.734;24.258;2023-05-24T11:34:30;91809.47;;;22.91;45.24
20628;BME280;10473;42.734;24.258;2023-05-24T11:37:00;91810.72;;;22.99;47.38
20628;BME280;10473;42.734;24.258;2023-05-24T11:39:29;91794.66;;;23.05;51.59
20628;BME280;10473;42.734;24.258;2023-05-24T11:41:57;91805.81;;;23.07;50.82
20628;BME280;10473;42.734;24.258;2023-05-24T11:44:28;91794.38;;;23.03;52.34
20628;BME280;10473;42.734;24.258;2023-05-24T11:46:57;91797.69;;;23.07;53.74
20628;BME280;10473;42.734;24.258;2023-05-24T11:49:26;91794.28;;;23.15;52.07
20628;BME280;10473;42.734;24.258;2023-05-24T11:51:54;91790.38;;;23.16;48.24
20628;BME280;10473;42.734;24.258;2023-05-24T11:54:24;91791.72;;;23.12;48.55
20628;BME280;10473;42.734;24.258;2023-05-24T11:56:54;91794.19;;;23.28;49.02
20628;BME280;10473;42.734;24.258;2023-05-24T11:59:23;91788.38;;;23.47;47.71
20628;BME280;10473;42.734;24.258;2023-05-24T12:01:56;91784.66;;;23.63;46.72
20628;BME280;10473;42.734;24.258;2023-05-24T12:04:25;91785.16;;;23.31;48.20
20628;BME280;10473;42.734;24.258;2023-05-24T12:06:53;91781.13;;;23.35;49.84
20628;BME280;10473;42.734;24.258;2023-05-24T12:09:24;91787.88;;;23.22;49.32
20628;BME280;10473;42.734;24.258;2023-05-24T12:11:52;91780.41;;;23.04;47.38
20628;BME280;10473;42.734;24.258;2023-05-24T12:14:23;91779.63;;;22.95;48.38
20628;BME280;10473;42.734;24.258;2023-05-24T12:16:53;91764.28;;;22.92;49.09
20628;BME280;10473;42.734;24.258;2023-05-24T12:19:23;91766.41;;;22.97;47.39
20628;BME280;10473;42.734;24.258;2023-05-24T12:21:54;91767.63;;;23.05;46.61
20628;BME280;10473;42.734;24.258;2023-05-24T12:24:25;91769.44;;;22.99;49.20
20628;BME280;10473;42.734;24.258;2023-05-24T12:26:57;91767.00;;;23.01;46.43
20628;BME280;10473;42.734;24.258;2023-05-24T12:29:26;91758.47;;;23.02;48.07
20628;BME280;10473;42.734;24.258;2023-05-24T12:31:54;91768.50;;;23.02;49.74
20628;BME280;10473;42.734;24.258;2023-05-24T12:34:21;91761.31;;;22.99;49.90
20628;BME280;10473;42.734;24.258;2023-05-24T12:36:52;91749.94;;;22.73;50.18
20628;BME280;10473;42.734;24.258;2023-05-24T12:39:20;91757.22;;;22.85;48.06
20628;BME280;10473;42.734;24.258;2023-05-24T12:41:54;91762.38;;;23.01;45.66
20628;BME280;10473;42.734;24.258;2023-05-24T12:44:23;91760.41;;;22.93;46.86
20628;BME280;10473;42.734;24.258;2023-05-24T12:46:52;91759.34;;;22.99;47.45
20628;BME280;10473;42.734;24.258;2023-05-24T12:49:20;91762.22;;;23.05;45.79
20628;BME280;10473;42.734;24.258;2023-05-24T12:51:48;91764.50;;;23.06;45.95
20628;BME280;10473;42.734;24.258;2023-05-24T12:54:18;91762.66;;;23.03;46.28
20628;BME280;10473;42.734;24.258;2023-05-24T12:56:47;91754.28;;;22.71;48.44
20628;BME280;10473;42.734;24.258;2023-05-24T12:59:16;91761.06;;;22.75;47.48
20628;BME280;10473;42.734;24.258;2023-05-24T13:01:44;91754.50;;;22.85;48.04
20628;BME280;10473;42.734;24.258;2023-05-24T13:04:16;91759.00;;;22.88;46.82